sensor_id;sensor_type;location;lat;lon;timestamp;P1;durP1;ratioP1;P2;durP2;ratioP2
38399;SDS011;24180;42.676;23.320;2023-07-02T00:01:40;12.07;;;9.13;;
38399;SDS011;24180;42.676;23.320;2023-07-02T00:04:05;10.37;;;8.53;;
38399;SDS011;24180;42.676;23.320;2023-07-02T00:06:34;11.13;;;8.83;;
38399;SDS011;24180;42.676;23.320;2023-07-02T00:09:05;12.33;;;7.67;;
38399;SDS011;24180;42.676;23.320;2023-07-02T00:11:31;13.10;;;10.27;;
38399;SDS011;24180;42.676;23.320;2023-07-02T00:13:56;12.23;;;9.90;;
38399;SDS011;24180;42.676;23.320;2023-07-02T00:16:22;13.77;;;10.40;;
38399;SDS011;24180;42.676;23.320;2023-07-02T00:18:47;14.00;;;12.53;;
38399;SDS011;24180;42.676;23.320;2023-07-02T00:21:13;12.93;;;10.70;;
38399;SDS011;24180;42.676;23.320;2023-07-02T00:23:38;15.27;;;11.57;;
38399;SDS011;24180;42.676;23.320;2023-07-02T00:26:04;14.30;;;10.40;;
38399;SDS011;24180;42.676;23.320;2023-07-02T00:28:30;13.60;;;11.67;;
38399;SDS011;24180;42.676;23.320;2023-07-02T00:30:55;13.90;;;10.97;;
38399;SDS011;24180;42.676;23.320;2023-07-02T00:33:20;13.70;;;10.13;;
38399;SDS011;24180;42.676;23.320;2023-07-02T00:35:46;11.93;;;9.50;;
38399;SDS011;24180;42.676;23.320;2023-07-02T00:38:11;11.83;;;8.47;;
38399;SDS011;24180;42.676;23.320;2023-07-02T00:40:37;15.80;;;9.10;;
38399;SDS011;24180;42.676;23.320;2023-07-02T00:43:02;13.73;;;8.10;;
38399;SDS011;24180;42.676;23.320;2023-07-02T00:45:28;8.83;;;7.63;;
38399;SDS011;24180;42.676;23.320;2023-07-02T00:47:54;11.03;;;8.10;;
38399;SDS011;24180;42.676;23.320;2023-07-02T00:50:21;9.50;;;8.53;;
38399;SDS011;24180;42.676;23.320;2023-07-02T00:52:48;13.07;;;8.67;;
38399;SDS011;24180;42.676;23.320;2023-07-02T00:55:13;10.40;;;8.57;;
38399;SDS011;24180;42.676;23.320;2023-07-02T00:57:39;13.10;;;8.80;;
38399;SDS011;24180;42.676;23.320;2023-07-02T01:00:06;10.23;;;8.20;;
38399;SDS011;24180;42.676;23.320;2023-07-02T01:02:32;9.40;;;7.40;;
38399;SDS011;24180;42.676;23.320;2023-07-02T01:04:57;9.70;;;8.70;;
38399;SDS011;24180;42.676;23.320;2023-07-02T01:07:24;11.30;;;7.50;;
38399;SDS011;24180;42.676;23.320;2023-07-02T01:09:50;9.70;;;8.00;;
38399;SDS011;24180;42.676;23.320;2023-07-02T01:12:16;9.90;;;7.97;;
38399;SDS011;24180;42.676;23.320;2023-07-02T01:14:47;9.77;;;8.67;;
38399;SDS011;24180;42.676;23.320;2023-07-02T01:17:16;10.53;;;9.17;;
38399;SDS011;24180;42.676;23.320;2023-07-02T01:22:21;10.47;;;8.77;;
38399;SDS011;24180;42.676;23.320;2023-07-02T01:24:51;9.87;;;8.63;;
38399;SDS011;24180;42.676;23.320;2023-07-02T01:27:18;13.13;;;8.07;;
38399;SDS011;24180;42.676;23.320;2023-07-02T01:29:44;9.50;;;8.40;;
38399;SDS011;24180;42.676;23.320;2023-07-02T01:32:13;11.47;;;8.90;;
38399;SDS011;24180;42.676;23.320;2023-07-02T01:34:39;10.93;;;8.30;;
38399;SDS011;24180;42.676;23.320;2023-07-02T01:37:04;9.37;;;8.37;;
38399;SDS011;24180;42.676;23.320;2023-07-02T01:39:30;12.20;;;8.53;;
38399;SDS011;24180;42.676;23.320;2023-07-02T01:42:06;11.10;;;9.07;;
38399;SDS011;24180;42.676;23.320;2023-07-02T01:44:32;8.97;;;7.93;;
38399;SDS011;24180;42.676;23.320;2023-07-02T01:46:57;12.10;;;8.10;;
38399;SDS011;24180;42.676;23.320;2023-07-02T01:49:24;10.20;;;9.20;;
38399;SDS011;24180;42.676;23.320;2023-07-02T01:51:50;10.80;;;8.43;;
38399;SDS011;24180;42.676;23.320;2023-07-02T01:54:20;10.27;;;8.30;;
38399;SDS011;24180;42.676;23.320;2023-07-02T01:56:47;9.53;;;8.40;;
38399;SDS011;24180;42.676;23.320;2023-07-02T01:59:13;10.17;;;9.07;;
38399;SDS011;24180;42.676;23.320;2023-07-02T02:01:38;11.60;;;8.90;;
38399;SDS011;24180;42.676;23.320;2023-07-02T02:04:07;9.00;;;8.10;;
38399;SDS011;24180;42.676;23.320;2023-07-02T02:06:33;10.27;;;8.73;;
38399;SDS011;24180;42.676;23.320;2023-07-02T02:08:59;12.53;;;10.20;;
38399;SDS011;24180;42.676;23.320;2023-07-02T02:11:24;9.33;;;8.20;;
38399;SDS011;24180;42.676;23.320;2023-07-02T02:13:50;9.77;;;8.53;;
38399;SDS011;24180;42.676;23.320;2023-07-02T02:16:15;10.47;;;8.67;;
38399;SDS011;24180;42.676;23.320;2023-07-02T02:18:41;10.00;;;9.00;;
38399;SDS011;24180;42.676;23.320;2023-07-02T02:21:07;10.80;;;8.80;;
38399;SDS011;24180;42.676;23.320;2023-07-02T02:23:32;10.47;;;9.03;;
38399;SDS011;24180;42.676;23.320;2023-07-02T02:25:58;13.70;;;9.77;;
38399;SDS011;24180;42.676;23.320;2023-07-02T02:28:23;11.37;;;9.30;;
38399;SDS011;24180;42.676;23.320;2023-07-02T02:30:48;11.83;;;9.07;;
38399;SDS011;24180;42.676;23.320;2023-07-02T02:33:14;10.87;;;9.63;;
38399;SDS011;24180;42.676;23.320;2023-07-02T02:35:39;11.23;;;9.13;;
38399;SDS011;24180;42.676;23.320;2023-07-02T02:38:05;10.77;;;9.07;;
38399;SDS011;24180;42.676;23.320;2023-07-02T02:40:30;10.90;;;8.73;;
38399;SDS011;24180;42.676;23.320;2023-07-02T02:42:56;11.73;;;9.20;;
38399;SDS011;24180;42.676;23.320;2023-07-02T02:45:21;12.10;;;8.40;;
38399;SDS011;24180;42.676;23.320;2023-07-02T02:47:47;9.80;;;8.80;;
38399;SDS011;24180;42.676;23.320;2023-07-02T02:50:12;11.17;;;8.70;;
38399;SDS011;24180;42.676;23.320;2023-07-02T02:52:38;11.90;;;8.87;;
38399;SDS011;24180;42.676;23.320;2023-07-02T02:55:05;10.37;;;9.10;;
38399;SDS011;24180;42.676;23.320;2023-07-02T02:57:31;13.93;;;8.97;;
38399;SDS011;24180;42.676;23.320;2023-07-02T02:59:57;12.40;;;8.67;;
38399;SDS011;24180;42.676;23.320;2023-07-02T03:02:23;11.47;;;8.10;;
38399;SDS011;24180;42.676;23.320;2023-07-02T03:04:48;12.17;;;8.50;;
38399;SDS011;24180;42.676;23.320;2023-07-02T03:07:14;11.73;;;8.43;;
38399;SDS011;24180;42.676;23.320;2023-07-02T03:09:40;14.37;;;8.50;;
38399;SDS011;24180;42.676;23.320;2023-07-02T03:12:06;9.97;;;7.87;;
38399;SDS011;24180;42.676;23.320;2023-07-02T03:14:32;11.27;;;8.20;;
38399;SDS011;24180;42.676;23.320;2023-07-02T03:16:57;11.47;;;8.57;;
38399;SDS011;24180;42.676;23.320;2023-07-02T03:19:23;12.53;;;8.13;;
38399;SDS011;24180;42.676;23.320;2023-07-02T03:21:49;11.17;;;8.43;;
38399;SDS011;24180;42.676;23.320;2023-07-02T03:24:14;12.13;;;8.07;;
38399;SDS011;24180;42.676;23.320;2023-07-02T03:26:41;10.20;;;7.67;;
38399;SDS011;24180;42.676;23.320;2023-07-02T03:29:07;10.80;;;8.10;;
38399;SDS011;24180;42.676;23.320;2023-07-02T03:31:33;9.47;;;7.77;;
38399;SDS011;24180;42.676;23.320;2023-07-02T03:33:59;12.53;;;8.43;;
38399;SDS011;24180;42.676;23.320;2023-07-02T03:36:28;10.23;;;8.20;;
38399;SDS011;24180;42.676;23.320;2023-07-02T03:38:53;9.40;;;7.73;;
38399;SDS011;24180;42.676;23.320;2023-07-02T03:41:19;11.30;;;8.17;;
38399;SDS011;24180;42.676;23.320;2023-07-02T03:43:44;13.03;;;8.87;;
38399;SDS011;24180;42.676;23.320;2023-07-02T03:46:10;9.93;;;8.87;;
38399;SDS011;24180;42.676;23.320;2023-07-02T03:48:35;11.87;;;8.60;;
38399;SDS011;24180;42.676;23.320;2023-07-02T03:51:01;12.63;;;8.80;;
38399;SDS011;24180;42.676;23.320;2023-07-02T03:53:27;12.20;;;8.53;;
38399;SDS011;24180;42.676;23.320;2023-07-02T03:55:52;10.83;;;8.27;;
38399;SDS011;24180;42.676;23.320;2023-07-02T03:58:18;10.63;;;9.23;;
38399;SDS011;24180;42.676;23.320;2023-07-02T04:00:43;10.80;;;9.23;;
38399;SDS011;24180;42.676;23.320;2023-07-02T04:03:09;12.67;;;9.37;;
38399;SDS011;24180;42.676;23.320;2023-07-02T04:05:34;15.83;;;9.63;;
38399;SDS011;24180;42.676;23.320;2023-07-02T04:08:00;9.87;;;8.10;;
38399;SDS011;24180;42.676;23.320;2023-07-02T04:10:25;12.67;;;8.60;;
38399;SDS011;24180;42.676;23.320;2023-07-02T04:12:50;8.50;;;7.53;;
38399;SDS011;24180;42.676;23.320;2023-07-02T04:15:16;10.93;;;7.77;;
38399;SDS011;24180;42.676;23.320;2023-07-02T04:17:41;11.47;;;8.23;;
38399;SDS011;24180;42.676;23.320;2023-07-02T04:20:07;12.70;;;8.87;;
38399;SDS011;24180;42.676;23.320;2023-07-02T04:22:33;13.10;;;8.37;;
38399;SDS011;24180;42.676;23.320;2023-07-02T04:24:58;9.57;;;8.10;;
38399;SDS011;24180;42.676;23.320;2023-07-02T04:27:24;10.27;;;8.00;;
38399;SDS011;24180;42.676;23.320;2023-07-02T04:29:49;12.97;;;8.10;;
38399;SDS011;24180;42.676;23.320;2023-07-02T04:32:15;12.03;;;8.33;;
38399;SDS011;24180;42.676;23.320;2023-07-02T04:34:40;9.67;;;8.63;;
38399;SDS011;24180;42.676;23.320;2023-07-02T04:37:06;13.00;;;9.10;;
38399;SDS011;24180;42.676;23.320;2023-07-02T04:39:34;10.27;;;8.30;;
38399;SDS011;24180;42.676;23.320;2023-07-02T04:41:59;12.10;;;10.50;;
38399;SDS011;24180;42.676;23.320;2023-07-02T04:44:24;15.83;;;9.53;;
38399;SDS011;24180;42.676;23.320;2023-07-02T04:46:57;16.27;;;9.67;;
38399;SDS011;24180;42.676;23.320;2023-07-02T04:49:26;12.83;;;8.73;;
38399;SDS011;24180;42.676;23.320;2023-07-02T04:51:51;12.13;;;9.50;;
38399;SDS011;24180;42.676;23.320;2023-07-02T04:54:18;17.50;;;9.57;;
38399;SDS011;24180;42.676;23.320;2023-07-02T04:56:45;13.00;;;9.57;;
38399;SDS011;24180;42.676;23.320;2023-07-02T04:59:10;14.03;;;9.70;;
38399;SDS011;24180;42.676;23.320;2023-07-02T05:01:36;11.50;;;9.87;;
38399;SDS011;24180;42.676;23.320;2023-07-02T05:04:01;13.67;;;9.87;;
38399;SDS011;24180;42.676;23.320;2023-07-02T05:06:26;11.73;;;9.30;;
38399;SDS011;24180;42.676;23.320;2023-07-02T05:08:52;12.43;;;10.00;;
38399;SDS011;24180;42.676;23.320;2023-07-02T05:11:18;13.20;;;10.40;;
38399;SDS011;24180;42.676;23.320;2023-07-02T05:13:43;13.27;;;10.40;;
38399;SDS011;24180;42.676;23.320;2023-07-02T05:16:09;14.77;;;10.07;;
38399;SDS011;24180;42.676;23.320;2023-07-02T05:18:35;13.33;;;10.17;;
38399;SDS011;24180;42.676;23.320;2023-07-02T05:21:01;12.27;;;9.87;;
38399;SDS011;24180;42.676;23.320;2023-07-02T05:23:26;12.03;;;9.43;;
38399;SDS011;24180;42.676;23.320;2023-07-02T05:25:52;15.23;;;10.43;;
38399;SDS011;24180;42.676;23.320;2023-07-02T05:28:17;16.90;;;10.53;;
38399;SDS011;24180;42.676;23.320;2023-07-02T05:30:43;16.80;;;10.60;;
38399;SDS011;24180;42.676;23.320;2023-07-02T05:33:08;14.37;;;10.90;;
38399;SDS011;24180;42.676;23.320;2023-07-02T05:35:34;14.63;;;11.10;;
38399;SDS011;24180;42.676;23.320;2023-07-02T05:37:59;14.83;;;10.43;;
38399;SDS011;24180;42.676;23.320;2023-07-02T05:40:25;11.90;;;10.17;;
38399;SDS011;24180;42.676;23.320;2023-07-02T05:42:50;11.77;;;9.80;;
38399;SDS011;24180;42.676;23.320;2023-07-02T05:45:16;22.43;;;10.87;;
38399;SDS011;24180;42.676;23.320;2023-07-02T05:47:41;14.63;;;10.87;;
38399;SDS011;24180;42.676;23.320;2023-07-02T05:50:07;14.30;;;10.63;;
38399;SDS011;24180;42.676;23.320;2023-07-02T05:52:33;14.23;;;10.83;;
38399;SDS011;24180;42.676;23.320;2023-07-02T05:54:58;14.53;;;9.40;;
38399;SDS011;24180;42.676;23.320;2023-07-02T05:57:24;13.70;;;9.33;;
38399;SDS011;24180;42.676;23.320;2023-07-02T05:59:49;14.67;;;9.73;;
38399;SDS011;24180;42.676;23.320;2023-07-02T06:02:15;16.40;;;10.20;;
38399;SDS011;24180;42.676;23.320;2023-07-02T06:04:40;17.63;;;11.17;;
38399;SDS011;24180;42.676;23.320;2023-07-02T06:07:05;14.60;;;9.83;;
38399;SDS011;24180;42.676;23.320;2023-07-02T06:09:31;14.75;;;12.30;;
38399;SDS011;24180;42.676;23.320;2023-07-02T06:11:57;14.55;;;11.52;;
38399;SDS011;24180;42.676;23.320;2023-07-02T06:14:23;14.25;;;11.10;;
38399;SDS011;24180;42.676;23.320;2023-07-02T06:16:50;12.32;;;11.00;;
38399;SDS011;24180;42.676;23.320;2023-07-02T06:19:17;14.70;;;11.10;;
38399;SDS011;24180;42.676;23.320;2023-07-02T06:21:42;16.10;;;13.10;;
38399;SDS011;24180;42.676;23.320;2023-07-02T06:24:08;13.95;;;11.43;;
38399;SDS011;24180;42.676;23.320;2023-07-02T06:26:33;15.83;;;11.80;;
38399;SDS011;24180;42.676;23.320;2023-07-02T06:28:59;17.95;;;11.95;;
38399;SDS011;24180;42.676;23.320;2023-07-02T06:31:24;14.50;;;11.00;;
38399;SDS011;24180;42.676;23.320;2023-07-02T06:33:50;12.60;;;10.25;;
38399;SDS011;24180;42.676;23.320;2023-07-02T06:36:15;18.70;;;10.32;;
38399;SDS011;24180;42.676;23.320;2023-07-02T06:38:42;14.68;;;10.40;;
38399;SDS011;24180;42.676;23.320;2023-07-02T06:41:08;14.88;;;9.90;;
38399;SDS011;24180;42.676;23.320;2023-07-02T06:43:34;12.90;;;10.77;;
38399;SDS011;24180;42.676;23.320;2023-07-02T06:45:59;15.43;;;10.40;;
38399;SDS011;24180;42.676;23.320;2023-07-02T06:48:25;13.98;;;10.82;;
38399;SDS011;24180;42.676;23.320;2023-07-02T06:50:50;15.48;;;13.00;;
38399;SDS011;24180;42.676;23.320;2023-07-02T06:53:16;13.75;;;10.73;;
38399;SDS011;24180;42.676;23.320;2023-07-02T06:55:41;12.27;;;10.57;;
38399;SDS011;24180;42.676;23.320;2023-07-02T06:58:07;12.85;;;10.70;;
38399;SDS011;24180;42.676;23.320;2023-07-02T07:00:32;19.50;;;10.55;;
38399;SDS011;24180;42.676;23.320;2023-07-02T07:03:00;15.85;;;11.88;;
38399;SDS011;24180;42.676;23.320;2023-07-02T07:05:30;19.48;;;12.35;;
38399;SDS011;24180;42.676;23.320;2023-07-02T07:07:56;15.48;;;10.15;;
38399;SDS011;24180;42.676;23.320;2023-07-02T07:10:22;22.65;;;11.35;;
38399;SDS011;24180;42.676;23.320;2023-07-02T07:12:47;20.13;;;11.15;;
38399;SDS011;24180;42.676;23.320;2023-07-02T07:15:12;11.32;;;10.00;;
38399;SDS011;24180;42.676;23.320;2023-07-02T07:17:38;13.80;;;10.93;;
38399;SDS011;24180;42.676;23.320;2023-07-02T07:20:04;11.82;;;10.35;;
38399;SDS011;24180;42.676;23.320;2023-07-02T07:22:30;44.45;;;14.05;;
38399;SDS011;24180;42.676;23.320;2023-07-02T07:24:55;30.02;;;14.25;;
38399;SDS011;24180;42.676;23.320;2023-07-02T07:27:21;12.20;;;10.13;;
38399;SDS011;24180;42.676;23.320;2023-07-02T07:29:46;11.90;;;9.55;;
38399;SDS011;24180;42.676;23.320;2023-07-02T07:32:12;14.27;;;9.80;;
38399;SDS011;24180;42.676;23.320;2023-07-02T07:34:37;10.57;;;9.57;;
38399;SDS011;24180;42.676;23.320;2023-07-02T07:37:02;18.17;;;10.30;;
38399;SDS011;24180;42.676;23.320;2023-07-02T07:39:28;11.02;;;8.60;;
38399;SDS011;24180;42.676;23.320;2023-07-02T07:41:53;10.77;;;9.07;;
38399;SDS011;24180;42.676;23.320;2023-07-02T07:44:19;13.38;;;9.48;;
38399;SDS011;24180;42.676;23.320;2023-07-02T07:46:44;15.40;;;11.00;;
38399;SDS011;24180;42.676;23.320;2023-07-02T07:49:10;15.55;;;10.70;;
38399;SDS011;24180;42.676;23.320;2023-07-02T07:51:35;22.52;;;9.65;;
38399;SDS011;24180;42.676;23.320;2023-07-02T07:54:03;9.38;;;8.18;;
38399;SDS011;24180;42.676;23.320;2023-07-02T07:56:29;10.60;;;9.63;;
38399;SDS011;24180;42.676;23.320;2023-07-02T07:58:54;11.63;;;8.55;;
38399;SDS011;24180;42.676;23.320;2023-07-02T08:01:20;11.07;;;8.85;;
38399;SDS011;24180;42.676;23.320;2023-07-02T08:03:45;10.05;;;8.68;;
38399;SDS011;24180;42.676;23.320;2023-07-02T08:06:11;13.75;;;10.90;;
38399;SDS011;24180;42.676;23.320;2023-07-02T08:08:37;14.88;;;13.52;;
38399;SDS011;24180;42.676;23.320;2023-07-02T08:11:02;17.42;;;15.77;;
38399;SDS011;24180;42.676;23.320;2023-07-02T08:13:28;14.52;;;13.07;;
38399;SDS011;24180;42.676;23.320;2023-07-02T08:15:53;10.68;;;8.98;;
38399;SDS011;24180;42.676;23.320;2023-07-02T08:18:19;12.63;;;9.70;;
38399;SDS011;24180;42.676;23.320;2023-07-02T08:20:44;15.80;;;9.57;;
38399;SDS011;24180;42.676;23.320;2023-07-02T08:23:09;17.92;;;11.25;;
38399;SDS011;24180;42.676;23.320;2023-07-02T08:25:36;15.43;;;14.02;;
38399;SDS011;24180;42.676;23.320;2023-07-02T08:28:01;14.75;;;12.55;;
38399;SDS011;24180;42.676;23.320;2023-07-02T08:30:27;17.92;;;16.25;;
38399;SDS011;24180;42.676;23.320;2023-07-02T08:32:53;21.80;;;19.90;;
38399;SDS011;24180;42.676;23.320;2023-07-02T08:35:20;14.05;;;12.38;;
38399;SDS011;24180;42.676;23.320;2023-07-02T08:37:45;9.95;;;8.70;;
38399;SDS011;24180;42.676;23.320;2023-07-02T08:40:20;11.93;;;8.57;;
38399;SDS011;24180;42.676;23.320;2023-07-02T08:42:46;9.75;;;8.75;;
38399;SDS011;24180;42.676;23.320;2023-07-02T08:45:13;10.77;;;9.77;;
38399;SDS011;24180;42.676;23.320;2023-07-02T08:47:41;15.18;;;8.50;;
38399;SDS011;24180;42.676;23.320;2023-07-02T08:50:06;11.45;;;8.40;;
38399;SDS011;24180;42.676;23.320;2023-07-02T08:52:32;11.23;;;8.55;;
38399;SDS011;24180;42.676;23.320;2023-07-02T08:54:58;10.75;;;8.88;;
38399;SDS011;24180;42.676;23.320;2023-07-02T08:57:23;12.30;;;8.63;;
38399;SDS011;24180;42.676;23.320;2023-07-02T08:59:48;10.60;;;8.98;;
38399;SDS011;24180;42.676;23.320;2023-07-02T09:02:16;9.55;;;7.80;;
38399;SDS011;24180;42.676;23.320;2023-07-02T09:04:42;10.07;;;8.18;;
38399;SDS011;24180;42.676;23.320;2023-07-02T09:07:08;10.02;;;9.02;;
38399;SDS011;24180;42.676;23.320;2023-07-02T09:09:45;11.27;;;8.32;;
38399;SDS011;24180;42.676;23.320;2023-07-02T09:14:59;10.18;;;7.72;;
38399;SDS011;24180;42.676;23.320;2023-07-02T09:17:35;8.45;;;7.65;;
38399;SDS011;24180;42.676;23.320;2023-07-02T09:20:02;11.40;;;7.68;;
38399;SDS011;24180;42.676;23.320;2023-07-02T09:22:32;9.10;;;8.18;;
38399;SDS011;24180;42.676;23.320;2023-07-02T09:24:57;10.50;;;9.02;;
38399;SDS011;24180;42.676;23.320;2023-07-02T09:27:34;7.85;;;7.05;;
38399;SDS011;24180;42.676;23.320;2023-07-02T09:32:32;7.78;;;6.95;;
38399;SDS011;24180;42.676;23.320;2023-07-02T09:34:58;10.05;;;7.95;;
38399;SDS011;24180;42.676;23.320;2023-07-02T09:37:24;9.02;;;8.13;;
38399;SDS011;24180;42.676;23.320;2023-07-02T09:39:50;9.63;;;8.25;;
38399;SDS011;24180;42.676;23.320;2023-07-02T09:42:19;8.68;;;7.90;;
38399;SDS011;24180;42.676;23.320;2023-07-02T09:44:45;11.30;;;8.05;;
38399;SDS011;24180;42.676;23.320;2023-07-02T09:47:12;9.07;;;7.60;;
38399;SDS011;24180;42.676;23.320;2023-07-02T09:49:39;10.15;;;8.27;;
38399;SDS011;24180;42.676;23.320;2023-07-02T09:52:08;9.60;;;8.77;;
38399;SDS011;24180;42.676;23.320;2023-07-02T09:54:35;8.23;;;7.30;;
38399;SDS011;24180;42.676;23.320;2023-07-02T09:57:02;8.20;;;7.15;;
38399;SDS011;24180;42.676;23.320;2023-07-02T09:59:29;10.10;;;8.25;;
38399;SDS011;24180;42.676;23.320;2023-07-02T10:01:55;8.10;;;7.22;;
38399;SDS011;24180;42.676;23.320;2023-07-02T10:04:22;8.73;;;7.82;;
38399;SDS011;24180;42.676;23.320;2023-07-02T10:06:52;10.07;;;9.05;;
38399;SDS011;24180;42.676;23.320;2023-07-02T10:09:18;7.32;;;6.63;;
38399;SDS011;24180;42.676;23.320;2023-07-02T10:11:43;10.88;;;8.90;;
38399;SDS011;24180;42.676;23.320;2023-07-02T10:14:09;13.77;;;12.38;;
38399;SDS011;24180;42.676;23.320;2023-07-02T10:16:47;9.98;;;8.93;;
38399;SDS011;24180;42.676;23.320;2023-07-02T10:19:14;8.48;;;7.68;;
38399;SDS011;24180;42.676;23.320;2023-07-02T10:21:39;7.50;;;6.80;;
38399;SDS011;24180;42.676;23.320;2023-07-02T10:24:08;8.50;;;6.72;;
38399;SDS011;24180;42.676;23.320;2023-07-02T10:26:38;7.57;;;6.82;;
38399;SDS011;24180;42.676;23.320;2023-07-02T10:29:03;9.23;;;7.40;;
38399;SDS011;24180;42.676;23.320;2023-07-02T10:31:29;7.65;;;6.93;;
38399;SDS011;24180;42.676;23.320;2023-07-02T10:33:54;8.32;;;6.35;;
38399;SDS011;24180;42.676;23.320;2023-07-02T10:36:21;8.20;;;7.40;;
38399;SDS011;24180;42.676;23.320;2023-07-02T10:38:48;7.35;;;6.65;;
38399;SDS011;24180;42.676;23.320;2023-07-02T10:41:23;7.35;;;6.65;;
38399;SDS011;24180;42.676;23.320;2023-07-02T10:43:52;7.45;;;6.65;;
38399;SDS011;24180;42.676;23.320;2023-07-02T10:46:18;7.22;;;6.40;;
38399;SDS011;24180;42.676;23.320;2023-07-02T10:48:57;7.35;;;6.75;;
38399;SDS011;24180;42.676;23.320;2023-07-02T10:51:22;7.45;;;6.78;;
38399;SDS011;24180;42.676;23.320;2023-07-02T10:53:58;8.52;;;6.93;;
38399;SDS011;24180;42.676;23.320;2023-07-02T10:56:26;8.18;;;7.20;;
38399;SDS011;24180;42.676;23.320;2023-07-02T10:58:53;7.35;;;6.43;;
38399;SDS011;24180;42.676;23.320;2023-07-02T11:01:25;7.30;;;6.60;;
38399;SDS011;24180;42.676;23.320;2023-07-02T11:03:56;8.13;;;6.72;;
38399;SDS011;24180;42.676;23.320;2023-07-02T11:06:29;7.47;;;6.55;;
38399;SDS011;24180;42.676;23.320;2023-07-02T11:08:57;7.75;;;6.72;;
38399;SDS011;24180;42.676;23.320;2023-07-02T11:11:22;7.88;;;6.55;;
38399;SDS011;24180;42.676;23.320;2023-07-02T11:13:48;7.25;;;6.57;;
38399;SDS011;24180;42.676;23.320;2023-07-02T11:16:22;6.85;;;6.25;;
38399;SDS011;24180;42.676;23.320;2023-07-02T11:19:06;8.18;;;7.30;;
38399;SDS011;24180;42.676;23.320;2023-07-02T11:21:33;7.32;;;6.72;;
38399;SDS011;24180;42.676;23.320;2023-07-02T11:24:02;9.38;;;6.40;;
38399;SDS011;24180;42.676;23.320;2023-07-02T11:26:35;6.88;;;6.18;;
38399;SDS011;24180;42.676;23.320;2023-07-02T11:29:02;6.47;;;5.88;;
38399;SDS011;24180;42.676;23.320;2023-07-02T11:31:27;6.72;;;6.13;;
38399;SDS011;24180;42.676;23.320;2023-07-02T11:33:53;7.18;;;6.68;;
38399;SDS011;24180;42.676;23.320;2023-07-02T11:36:20;7.05;;;5.97;;
38399;SDS011;24180;42.676;23.320;2023-07-02T11:38:49;7.15;;;5.93;;
38399;SDS011;24180;42.676;23.320;2023-07-02T11:41:15;6.18;;;5.57;;
38399;SDS011;24180;42.676;23.320;2023-07-02T11:43:41;7.15;;;6.28;;
38399;SDS011;24180;42.676;23.320;2023-07-02T11:46:06;6.70;;;6.10;;
38399;SDS011;24180;42.676;23.320;2023-07-02T11:48:32;7.20;;;5.80;;
38399;SDS011;24180;42.676;23.320;2023-07-02T11:50:57;7.45;;;5.93;;
38399;SDS011;24180;42.676;23.320;2023-07-02T11:53:22;6.35;;;5.72;;
38399;SDS011;24180;42.676;23.320;2023-07-02T11:55:49;6.57;;;5.97;;
38399;SDS011;24180;42.676;23.320;2023-07-02T11:58:14;6.65;;;6.05;;
38399;SDS011;24180;42.676;23.320;2023-07-02T12:00:40;6.97;;;6.25;;
38399;SDS011;24180;42.676;23.320;2023-07-02T12:03:05;6.78;;;6.18;;
38399;SDS011;24180;42.676;23.320;2023-07-02T12:05:31;6.03;;;5.53;;
38399;SDS011;24180;42.676;23.320;2023-07-02T12:07:57;6.07;;;5.57;;
38399;SDS011;24180;42.676;23.320;2023-07-02T12:10:22;6.55;;;5.95;;
38399;SDS011;24180;42.676;23.320;2023-07-02T12:12:47;5.43;;;4.97;;
38399;SDS011;24180;42.676;23.320;2023-07-02T12:15:13;5.88;;;5.38;;
38399;SDS011;24180;42.676;23.320;2023-07-02T12:17:38;5.25;;;4.75;;
38399;SDS011;24180;42.676;23.320;2023-07-02T12:20:04;8.00;;;7.28;;
38399;SDS011;24180;42.676;23.320;2023-07-02T12:22:30;8.07;;;7.28;;
38399;SDS011;24180;42.676;23.320;2023-07-02T12:24:55;6.05;;;5.50;;
38399;SDS011;24180;42.676;23.320;2023-07-02T12:27:22;6.47;;;5.55;;
38399;SDS011;24180;42.676;23.320;2023-07-02T12:29:47;7.15;;;6.18;;
38399;SDS011;24180;42.676;23.320;2023-07-02T12:32:14;7.13;;;6.43;;
38399;SDS011;24180;42.676;23.320;2023-07-02T12:34:39;8.60;;;7.03;;
38399;SDS011;24180;42.676;23.320;2023-07-02T12:37:05;7.45;;;6.57;;
38399;SDS011;24180;42.676;23.320;2023-07-02T12:39:30;8.57;;;7.88;;
38399;SDS011;24180;42.676;23.320;2023-07-02T12:41:56;9.02;;;6.30;;
38399;SDS011;24180;42.676;23.320;2023-07-02T12:44:21;8.77;;;7.88;;
38399;SDS011;24180;42.676;23.320;2023-07-02T12:46:47;7.60;;;6.90;;
38399;SDS011;24180;42.676;23.320;2023-07-02T12:49:12;7.10;;;6.50;;
38399;SDS011;24180;42.676;23.320;2023-07-02T12:51:38;7.15;;;6.50;;
38399;SDS011;24180;42.676;23.320;2023-07-02T12:54:03;7.47;;;6.78;;
38399;SDS011;24180;42.676;23.320;2023-07-02T12:56:29;7.18;;;6.43;;
38399;SDS011;24180;42.676;23.320;2023-07-02T12:58:54;7.30;;;6.70;;
38399;SDS011;24180;42.676;23.320;2023-07-02T13:01:20;7.88;;;7.18;;
38399;SDS011;24180;42.676;23.320;2023-07-02T13:03:45;7.18;;;6.57;;
38399;SDS011;24180;42.676;23.320;2023-07-02T13:06:15;7.40;;;6.80;;
38399;SDS011;24180;42.676;23.320;2023-07-02T13:08:40;8.40;;;7.05;;
38399;SDS011;24180;42.676;23.320;2023-07-02T13:11:07;7.25;;;6.55;;
38399;SDS011;24180;42.676;23.320;2023-07-02T13:13:32;7.32;;;6.63;;
38399;SDS011;24180;42.676;23.320;2023-07-02T13:16:01;8.45;;;6.95;;
38399;SDS011;24180;42.676;23.320;2023-07-02T13:18:26;7.00;;;6.40;;
38399;SDS011;24180;42.676;23.320;2023-07-02T13:20:52;8.45;;;6.50;;
38399;SDS011;24180;42.676;23.320;2023-07-02T13:23:17;7.72;;;6.93;;
38399;SDS011;24180;42.676;23.320;2023-07-02T13:25:42;7.30;;;6.68;;
38399;SDS011;24180;42.676;23.320;2023-07-02T13:28:08;7.32;;;6.63;;
38399;SDS011;24180;42.676;23.320;2023-07-02T13:30:33;8.00;;;7.30;;
38399;SDS011;24180;42.676;23.320;2023-07-02T13:32:59;9.43;;;7.25;;
38399;SDS011;24180;42.676;23.320;2023-07-02T13:35:24;7.57;;;6.93;;
38399;SDS011;24180;42.676;23.320;2023-07-02T13:37:50;7.90;;;7.15;;
38399;SDS011;24180;42.676;23.320;2023-07-02T13:40:15;7.30;;;6.57;;
38399;SDS011;24180;42.676;23.320;2023-07-02T13:42:41;7.50;;;6.70;;
38399;SDS011;24180;42.676;23.320;2023-07-02T13:45:07;7.97;;;7.03;;
38399;SDS011;24180;42.676;23.320;2023-07-02T13:47:34;8.68;;;7.22;;
38399;SDS011;24180;42.676;23.320;2023-07-02T13:50:00;8.05;;;7.25;;
38399;SDS011;24180;42.676;23.320;2023-07-02T13:52:26;8.23;;;7.43;;
38399;SDS011;24180;42.676;23.320;2023-07-02T13:54:51;9.75;;;7.35;;
38399;SDS011;24180;42.676;23.320;2023-07-02T13:57:17;8.57;;;7.78;;
38399;SDS011;24180;42.676;23.320;2023-07-02T13:59:42;9.85;;;7.30;;
38399;SDS011;24180;42.676;23.320;2023-07-02T14:02:08;9.55;;;8.75;;
38399;SDS011;24180;42.676;23.320;2023-07-02T14:04:33;7.35;;;6.38;;
38399;SDS011;24180;42.676;23.320;2023-07-02T14:06:59;7.97;;;7.18;;
38399;SDS011;24180;42.676;23.320;2023-07-02T14:09:24;8.00;;;6.50;;
38399;SDS011;24180;42.676;23.320;2023-07-02T14:11:49;7.80;;;7.00;;
38399;SDS011;24180;42.676;23.320;2023-07-02T14:14:15;8.95;;;8.15;;
38399;SDS011;24180;42.676;23.320;2023-07-02T14:16:40;8.50;;;7.60;;
38399;SDS011;24180;42.676;23.320;2023-07-02T14:19:06;9.48;;;8.13;;
38399;SDS011;24180;42.676;23.320;2023-07-02T14:21:31;11.40;;;10.02;;
38399;SDS011;24180;42.676;23.320;2023-07-02T14:23:57;10.27;;;9.25;;
38399;SDS011;24180;42.676;23.320;2023-07-02T14:26:23;10.07;;;9.15;;